Terminal Aerodrome Forecast
Issued by NWS

Home | Current Version | Previous Version | Text Only | Print | Product List | Glossary On
Versions: 1 2 3 4 5 6 7 8 9 10 11 12 13 14
461
FTPA31 PHFO 290547
TAFHOG
TAF
PHOG 290547Z 2906/3006 05014G20KT P6SM FEW030 SCT045
     FM291900 05019G28KT P6SM FEW030 SCT045
     FM300500 05014G20KT P6SM SCT030 SCT045
      AMD LTD TO VIS AND WIND 2909/2916=

USA.gov is the U.S. government's official web portal to all federal, state and local government web resources and services.